sensor_id;sensor_type;location;lat;lon;timestamp;P1;durP1;ratioP1;P2;durP2;ratioP2
8887;SDS011;4480;52.370;9.748;2023-06-01T00:01:43;13.63;;;6.90;;
8887;SDS011;4480;52.370;9.748;2023-06-01T00:04:10;8.47;;;6.63;;
8887;SDS011;4480;52.370;9.748;2023-06-01T00:06:38;16.73;;;6.80;;
8887;SDS011;4480;52.370;9.748;2023-06-01T00:09:05;13.43;;;7.87;;
8887;SDS011;4480;52.370;9.748;2023-06-01T00:11:33;17.80;;;10.47;;
8887;SDS011;4480;52.370;9.748;2023-06-01T00:14:00;14.37;;;11.00;;
8887;SDS011;4480;52.370;9.748;2023-06-01T00:16:27;15.43;;;11.17;;
8887;SDS011;4480;52.370;9.748;2023-06-01T00:18:54;19.43;;;12.67;;
8887;SDS011;4480;52.370;9.748;2023-06-01T00:21:21;19.27;;;10.00;;
8887;SDS011;4480;52.370;9.748;2023-06-01T00:23:48;17.10;;;10.33;;
8887;SDS011;4480;52.370;9.748;2023-06-01T00:26:15;15.53;;;10.30;;
8887;SDS011;4480;52.370;9.748;2023-06-01T00:28:43;10.30;;;8.10;;
8887;SDS011;4480;52.370;9.748;2023-06-01T00:31:10;16.70;;;9.23;;
8887;SDS011;4480;52.370;9.748;2023-06-01T00:33:37;15.97;;;10.30;;
8887;SDS011;4480;52.370;9.748;2023-06-01T00:36:04;15.57;;;11.70;;
8887;SDS011;4480;52.370;9.748;2023-06-01T00:38:31;15.50;;;8.47;;
8887;SDS011;4480;52.370;9.748;2023-06-01T00:40:58;11.90;;;7.97;;
8887;SDS011;4480;52.370;9.748;2023-06-01T00:43:25;14.53;;;9.60;;
8887;SDS011;4480;52.370;9.748;2023-06-01T00:45:53;13.67;;;10.00;;
8887;SDS011;4480;52.370;9.748;2023-06-01T00:48:20;15.83;;;9.70;;
8887;SDS011;4480;52.370;9.748;2023-06-01T00:50:48;10.07;;;6.53;;
8887;SDS011;4480;52.370;9.748;2023-06-01T00:53:16;12.73;;;9.67;;
8887;SDS011;4480;52.370;9.748;2023-06-01T00:55:44;12.10;;;9.50;;
8887;SDS011;4480;52.370;9.748;2023-06-01T00:58:12;12.50;;;9.13;;
8887;SDS011;4480;52.370;9.748;2023-06-01T01:00:39;11.60;;;8.00;;
8887;SDS011;4480;52.370;9.748;2023-06-01T01:03:08;12.23;;;8.47;;
8887;SDS011;4480;52.370;9.748;2023-06-01T01:05:35;14.37;;;9.03;;
8887;SDS011;4480;52.370;9.748;2023-06-01T01:08:13;10.70;;;7.20;;
8887;SDS011;4480;52.370;9.748;2023-06-01T01:10:52;11.40;;;7.50;;
8887;SDS011;4480;52.370;9.748;2023-06-01T01:13:26;15.23;;;9.23;;
8887;SDS011;4480;52.370;9.748;2023-06-01T01:15:57;13.40;;;8.33;;
8887;SDS011;4480;52.370;9.748;2023-06-01T01:18:30;17.03;;;8.87;;
8887;SDS011;4480;52.370;9.748;2023-06-01T01:21:03;11.50;;;7.43;;
8887;SDS011;4480;52.370;9.748;2023-06-01T01:23:55;12.70;;;7.47;;
8887;SDS011;4480;52.370;9.748;2023-06-01T01:26:40;12.60;;;7.57;;
8887;SDS011;4480;52.370;9.748;2023-06-01T01:29:16;13.80;;;7.90;;
8887;SDS011;4480;52.370;9.748;2023-06-01T01:31:45;11.50;;;6.80;;
8887;SDS011;4480;52.370;9.748;2023-06-01T01:34:16;13.70;;;8.73;;
8887;SDS011;4480;52.370;9.748;2023-06-01T01:36:45;8.97;;;6.93;;
8887;SDS011;4480;52.370;9.748;2023-06-01T01:39:12;10.30;;;7.40;;
8887;SDS011;4480;52.370;9.748;2023-06-01T01:41:39;13.90;;;7.73;;
8887;SDS011;4480;52.370;9.748;2023-06-01T01:44:06;11.80;;;7.43;;
8887;SDS011;4480;52.370;9.748;2023-06-01T01:46:36;9.03;;;5.80;;
8887;SDS011;4480;52.370;9.748;2023-06-01T01:49:12;11.10;;;7.30;;
8887;SDS011;4480;52.370;9.748;2023-06-01T01:51:43;12.43;;;7.45;;
8887;SDS011;4480;52.370;9.748;2023-06-01T01:54:15;15.10;;;7.40;;
8887;SDS011;4480;52.370;9.748;2023-06-01T01:56:43;11.70;;;7.10;;
8887;SDS011;4480;52.370;9.748;2023-06-01T01:59:12;12.50;;;7.07;;
8887;SDS011;4480;52.370;9.748;2023-06-01T02:01:42;12.87;;;6.83;;
8887;SDS011;4480;52.370;9.748;2023-06-01T02:04:10;13.70;;;6.78;;
8887;SDS011;4480;52.370;9.748;2023-06-01T02:06:36;11.73;;;8.23;;
8887;SDS011;4480;52.370;9.748;2023-06-01T02:09:03;19.27;;;11.10;;
8887;SDS011;4480;52.370;9.748;2023-06-01T02:11:32;20.33;;;11.23;;
8887;SDS011;4480;52.370;9.748;2023-06-01T02:13:59;19.63;;;10.77;;
8887;SDS011;4480;52.370;9.748;2023-06-01T02:16:26;19.33;;;8.60;;
8887;SDS011;4480;52.370;9.748;2023-06-01T02:18:54;11.55;;;8.20;;
8887;SDS011;4480;52.370;9.748;2023-06-01T02:21:22;14.83;;;8.10;;
8887;SDS011;4480;52.370;9.748;2023-06-01T02:23:49;12.23;;;6.93;;
8887;SDS011;4480;52.370;9.748;2023-06-01T02:26:16;15.77;;;6.67;;
8887;SDS011;4480;52.370;9.748;2023-06-01T02:28:43;12.90;;;6.90;;
8887;SDS011;4480;52.370;9.748;2023-06-01T02:31:12;15.90;;;7.00;;
8887;SDS011;4480;52.370;9.748;2023-06-01T02:33:38;9.90;;;6.30;;
8887;SDS011;4480;52.370;9.748;2023-06-01T02:36:07;9.50;;;6.30;;
8887;SDS011;4480;52.370;9.748;2023-06-01T02:38:34;12.03;;;6.13;;
8887;SDS011;4480;52.370;9.748;2023-06-01T02:41:01;7.83;;;5.97;;
8887;SDS011;4480;52.370;9.748;2023-06-01T02:43:27;10.20;;;6.23;;
8887;SDS011;4480;52.370;9.748;2023-06-01T02:45:54;11.93;;;6.47;;
8887;SDS011;4480;52.370;9.748;2023-06-01T02:48:21;17.37;;;6.60;;
8887;SDS011;4480;52.370;9.748;2023-06-01T02:50:49;11.20;;;6.17;;
8887;SDS011;4480;52.370;9.748;2023-06-01T02:53:17;14.20;;;6.80;;
8887;SDS011;4480;52.370;9.748;2023-06-01T02:55:43;9.03;;;5.40;;
8887;SDS011;4480;52.370;9.748;2023-06-01T02:58:10;11.93;;;6.13;;
8887;SDS011;4480;52.370;9.748;2023-06-01T03:00:41;14.37;;;5.77;;
8887;SDS011;4480;52.370;9.748;2023-06-01T03:03:08;10.30;;;5.70;;
8887;SDS011;4480;52.370;9.748;2023-06-01T03:05:35;11.13;;;5.97;;
8887;SDS011;4480;52.370;9.748;2023-06-01T03:08:02;13.47;;;5.43;;
8887;SDS011;4480;52.370;9.748;2023-06-01T03:10:30;13.10;;;6.73;;
8887;SDS011;4480;52.370;9.748;2023-06-01T03:12:57;16.30;;;6.30;;
8887;SDS011;4480;52.370;9.748;2023-06-01T03:15:24;10.30;;;6.13;;
8887;SDS011;4480;52.370;9.748;2023-06-01T03:17:52;13.40;;;6.20;;
8887;SDS011;4480;52.370;9.748;2023-06-01T03:20:19;12.55;;;7.15;;
8887;SDS011;4480;52.370;9.748;2023-06-01T03:22:46;11.07;;;6.43;;
8887;SDS011;4480;52.370;9.748;2023-06-01T03:25:12;12.57;;;6.90;;
8887;SDS011;4480;52.370;9.748;2023-06-01T03:27:41;10.87;;;6.33;;
8887;SDS011;4480;52.370;9.748;2023-06-01T03:32:37;16.93;;;7.30;;
8887;SDS011;4480;52.370;9.748;2023-06-01T03:35:06;13.13;;;6.82;;
8887;SDS011;4480;52.370;9.748;2023-06-01T03:37:34;13.47;;;6.80;;
8887;SDS011;4480;52.370;9.748;2023-06-01T03:40:01;11.82;;;7.43;;
8887;SDS011;4480;52.370;9.748;2023-06-01T03:42:35;9.77;;;8.23;;
8887;SDS011;4480;52.370;9.748;2023-06-01T03:45:04;15.37;;;8.50;;
8887;SDS011;4480;52.370;9.748;2023-06-01T03:47:31;14.37;;;8.07;;
8887;SDS011;4480;52.370;9.748;2023-06-01T03:49:58;11.47;;;7.90;;
8887;SDS011;4480;52.370;9.748;2023-06-01T03:52:25;16.38;;;7.75;;
8887;SDS011;4480;52.370;9.748;2023-06-01T03:54:53;10.13;;;6.87;;
8887;SDS011;4480;52.370;9.748;2023-06-01T03:57:20;12.20;;;7.47;;
8887;SDS011;4480;52.370;9.748;2023-06-01T03:59:47;7.30;;;5.97;;
8887;SDS011;4480;52.370;9.748;2023-06-01T04:02:15;9.82;;;6.25;;
8887;SDS011;4480;52.370;9.748;2023-06-01T04:04:43;11.87;;;6.57;;
8887;SDS011;4480;52.370;9.748;2023-06-01T04:07:12;14.10;;;7.93;;
8887;SDS011;4480;52.370;9.748;2023-06-01T04:11:45;8.43;;;6.68;;
8887;SDS011;4480;52.370;9.748;2023-06-01T04:14:12;15.45;;;8.18;;
8887;SDS011;4480;52.370;9.748;2023-06-01T04:16:38;12.07;;;7.90;;
8887;SDS011;4480;52.370;9.748;2023-06-01T04:19:05;10.97;;;7.00;;
8887;SDS011;4480;52.370;9.748;2023-06-01T04:21:32;10.02;;;6.80;;
8887;SDS011;4480;52.370;9.748;2023-06-01T04:23:59;15.00;;;8.00;;
8887;SDS011;4480;52.370;9.748;2023-06-01T04:26:26;10.33;;;5.07;;
8887;SDS011;4480;52.370;9.748;2023-06-01T04:28:54;15.87;;;6.97;;
8887;SDS011;4480;52.370;9.748;2023-06-01T04:31:22;9.30;;;6.80;;
8887;SDS011;4480;52.370;9.748;2023-06-01T04:33:49;10.00;;;6.87;;
8887;SDS011;4480;52.370;9.748;2023-06-01T04:36:18;10.20;;;5.50;;
8887;SDS011;4480;52.370;9.748;2023-06-01T04:38:46;8.63;;;5.40;;
8887;SDS011;4480;52.370;9.748;2023-06-01T04:41:16;9.33;;;5.77;;
8887;SDS011;4480;52.370;9.748;2023-06-01T04:43:45;11.33;;;4.80;;
8887;SDS011;4480;52.370;9.748;2023-06-01T04:46:17;7.63;;;4.83;;
8887;SDS011;4480;52.370;9.748;2023-06-01T04:48:46;7.83;;;4.70;;
8887;SDS011;4480;52.370;9.748;2023-06-01T04:51:13;7.43;;;3.80;;
8887;SDS011;4480;52.370;9.748;2023-06-01T04:53:44;4.80;;;4.13;;
8887;SDS011;4480;52.370;9.748;2023-06-01T04:56:14;5.83;;;4.37;;
8887;SDS011;4480;52.370;9.748;2023-06-01T04:58:43;8.33;;;4.20;;
8887;SDS011;4480;52.370;9.748;2023-06-01T05:01:12;6.80;;;4.43;;
8887;SDS011;4480;52.370;9.748;2023-06-01T05:03:41;8.40;;;4.63;;
8887;SDS011;4480;52.370;9.748;2023-06-01T05:06:09;6.90;;;4.47;;
8887;SDS011;4480;52.370;9.748;2023-06-01T05:08:37;6.53;;;4.70;;
8887;SDS011;4480;52.370;9.748;2023-06-01T05:11:04;9.40;;;5.77;;
8887;SDS011;4480;52.370;9.748;2023-06-01T05:13:31;8.10;;;4.77;;
8887;SDS011;4480;52.370;9.748;2023-06-01T05:15:59;7.93;;;5.73;;
8887;SDS011;4480;52.370;9.748;2023-06-01T05:18:25;6.90;;;4.53;;
8887;SDS011;4480;52.370;9.748;2023-06-01T05:20:54;5.97;;;4.70;;
8887;SDS011;4480;52.370;9.748;2023-06-01T05:23:21;10.77;;;5.53;;
8887;SDS011;4480;52.370;9.748;2023-06-01T05:25:48;6.30;;;5.13;;
8887;SDS011;4480;52.370;9.748;2023-06-01T05:28:15;6.20;;;4.70;;
8887;SDS011;4480;52.370;9.748;2023-06-01T05:30:42;7.70;;;5.60;;
8887;SDS011;4480;52.370;9.748;2023-06-01T05:33:09;9.97;;;5.60;;
8887;SDS011;4480;52.370;9.748;2023-06-01T05:35:36;9.03;;;5.27;;
8887;SDS011;4480;52.370;9.748;2023-06-01T05:38:04;6.50;;;4.80;;
8887;SDS011;4480;52.370;9.748;2023-06-01T05:40:31;10.60;;;6.80;;
8887;SDS011;4480;52.370;9.748;2023-06-01T05:42:57;10.87;;;5.77;;
8887;SDS011;4480;52.370;9.748;2023-06-01T05:45:24;11.03;;;7.03;;
8887;SDS011;4480;52.370;9.748;2023-06-01T05:47:51;9.30;;;6.33;;
8887;SDS011;4480;52.370;9.748;2023-06-01T05:50:18;9.53;;;7.20;;
8887;SDS011;4480;52.370;9.748;2023-06-01T05:52:45;16.37;;;8.77;;
8887;SDS011;4480;52.370;9.748;2023-06-01T05:55:13;18.20;;;7.27;;
8887;SDS011;4480;52.370;9.748;2023-06-01T05:57:40;8.53;;;5.57;;
8887;SDS011;4480;52.370;9.748;2023-06-01T06:00:07;13.70;;;5.27;;
8887;SDS011;4480;52.370;9.748;2023-06-01T06:02:36;8.90;;;6.27;;
8887;SDS011;4480;52.370;9.748;2023-06-01T06:05:03;10.83;;;6.77;;
8887;SDS011;4480;52.370;9.748;2023-06-01T06:07:31;9.00;;;5.87;;
8887;SDS011;4480;52.370;9.748;2023-06-01T06:09:58;14.67;;;5.73;;
8887;SDS011;4480;52.370;9.748;2023-06-01T06:12:26;10.27;;;6.03;;
8887;SDS011;4480;52.370;9.748;2023-06-01T06:14:53;10.37;;;5.67;;
8887;SDS011;4480;52.370;9.748;2023-06-01T06:17:20;9.77;;;5.83;;
8887;SDS011;4480;52.370;9.748;2023-06-01T06:19:47;9.63;;;7.07;;
8887;SDS011;4480;52.370;9.748;2023-06-01T06:22:14;8.97;;;6.20;;
8887;SDS011;4480;52.370;9.748;2023-06-01T06:24:41;8.57;;;5.70;;
8887;SDS011;4480;52.370;9.748;2023-06-01T06:27:08;9.37;;;6.77;;
8887;SDS011;4480;52.370;9.748;2023-06-01T06:29:37;11.43;;;7.63;;
8887;SDS011;4480;52.370;9.748;2023-06-01T06:32:04;9.60;;;6.37;;
8887;SDS011;4480;52.370;9.748;2023-06-01T06:34:31;11.20;;;7.53;;
8887;SDS011;4480;52.370;9.748;2023-06-01T06:37:01;11.17;;;7.37;;
8887;SDS011;4480;52.370;9.748;2023-06-01T06:39:28;9.53;;;6.80;;
8887;SDS011;4480;52.370;9.748;2023-06-01T06:41:55;10.43;;;6.33;;
8887;SDS011;4480;52.370;9.748;2023-06-01T06:44:22;9.60;;;6.03;;
8887;SDS011;4480;52.370;9.748;2023-06-01T06:46:50;12.80;;;6.67;;
8887;SDS011;4480;52.370;9.748;2023-06-01T06:49:17;9.33;;;6.63;;
8887;SDS011;4480;52.370;9.748;2023-06-01T06:51:44;13.17;;;7.57;;
8887;SDS011;4480;52.370;9.748;2023-06-01T06:54:11;15.37;;;8.30;;
8887;SDS011;4480;52.370;9.748;2023-06-01T06:56:38;18.13;;;8.50;;
8887;SDS011;4480;52.370;9.748;2023-06-01T06:59:05;15.73;;;8.17;;
8887;SDS011;4480;52.370;9.748;2023-06-01T07:01:32;14.37;;;9.87;;
8887;SDS011;4480;52.370;9.748;2023-06-01T07:04:01;19.70;;;11.13;;
8887;SDS011;4480;52.370;9.748;2023-06-01T07:06:29;22.73;;;11.57;;
8887;SDS011;4480;52.370;9.748;2023-06-01T07:08:57;19.37;;;12.10;;
8887;SDS011;4480;52.370;9.748;2023-06-01T07:11:24;26.57;;;13.23;;
8887;SDS011;4480;52.370;9.748;2023-06-01T07:13:51;18.63;;;12.57;;
8887;SDS011;4480;52.370;9.748;2023-06-01T07:16:18;19.33;;;13.57;;
8887;SDS011;4480;52.370;9.748;2023-06-01T07:18:45;18.03;;;12.57;;
8887;SDS011;4480;52.370;9.748;2023-06-01T07:21:13;20.50;;;12.57;;
8887;SDS011;4480;52.370;9.748;2023-06-01T07:23:41;18.27;;;12.13;;
8887;SDS011;4480;52.370;9.748;2023-06-01T07:26:08;16.03;;;11.50;;
8887;SDS011;4480;52.370;9.748;2023-06-01T07:28:35;18.97;;;12.63;;
8887;SDS011;4480;52.370;9.748;2023-06-01T07:31:02;18.40;;;11.13;;
8887;SDS011;4480;52.370;9.748;2023-06-01T07:33:29;19.70;;;11.97;;
8887;SDS011;4480;52.370;9.748;2023-06-01T07:35:58;21.93;;;13.10;;
8887;SDS011;4480;52.370;9.748;2023-06-01T07:38:27;20.40;;;13.70;;
8887;SDS011;4480;52.370;9.748;2023-06-01T07:40:53;22.17;;;14.53;;
8887;SDS011;4480;52.370;9.748;2023-06-01T07:43:20;19.00;;;13.80;;
8887;SDS011;4480;52.370;9.748;2023-06-01T07:45:47;17.37;;;12.37;;
8887;SDS011;4480;52.370;9.748;2023-06-01T07:48:14;17.07;;;11.30;;
8887;SDS011;4480;52.370;9.748;2023-06-01T07:50:41;21.47;;;11.80;;
8887;SDS011;4480;52.370;9.748;2023-06-01T07:53:08;13.70;;;10.77;;
8887;SDS011;4480;52.370;9.748;2023-06-01T07:55:36;14.90;;;10.23;;
8887;SDS011;4480;52.370;9.748;2023-06-01T07:58:03;15.40;;;9.53;;
8887;SDS011;4480;52.370;9.748;2023-06-01T08:00:30;12.30;;;9.03;;
8887;SDS011;4480;52.370;9.748;2023-06-01T08:02:57;14.80;;;9.67;;
8887;SDS011;4480;52.370;9.748;2023-06-01T08:05:24;10.70;;;7.43;;
8887;SDS011;4480;52.370;9.748;2023-06-01T08:07:51;12.43;;;8.17;;
8887;SDS011;4480;52.370;9.748;2023-06-01T08:10:17;8.70;;;7.80;;
8887;SDS011;4480;52.370;9.748;2023-06-01T08:12:46;14.20;;;7.70;;
8887;SDS011;4480;52.370;9.748;2023-06-01T08:15:13;10.97;;;8.20;;
8887;SDS011;4480;52.370;9.748;2023-06-01T08:17:41;8.57;;;6.63;;
8887;SDS011;4480;52.370;9.748;2023-06-01T08:20:08;10.80;;;6.50;;
8887;SDS011;4480;52.370;9.748;2023-06-01T08:22:37;8.93;;;7.00;;
8887;SDS011;4480;52.370;9.748;2023-06-01T08:25:04;10.77;;;6.40;;
8887;SDS011;4480;52.370;9.748;2023-06-01T08:27:31;11.37;;;7.07;;
8887;SDS011;4480;52.370;9.748;2023-06-01T08:30:00;10.00;;;6.70;;
8887;SDS011;4480;52.370;9.748;2023-06-01T08:32:26;6.93;;;5.60;;
8887;SDS011;4480;52.370;9.748;2023-06-01T08:34:53;8.50;;;6.00;;
8887;SDS011;4480;52.370;9.748;2023-06-01T08:37:20;16.73;;;7.07;;
8887;SDS011;4480;52.370;9.748;2023-06-01T08:39:47;8.90;;;6.70;;
8887;SDS011;4480;52.370;9.748;2023-06-01T08:42:15;9.17;;;6.17;;
8887;SDS011;4480;52.370;9.748;2023-06-01T08:44:48;11.50;;;5.63;;
8887;SDS011;4480;52.370;9.748;2023-06-01T08:47:21;16.47;;;5.83;;
8887;SDS011;4480;52.370;9.748;2023-06-01T08:49:50;11.33;;;5.27;;
8887;SDS011;4480;52.370;9.748;2023-06-01T08:52:19;5.20;;;4.40;;
8887;SDS011;4480;52.370;9.748;2023-06-01T08:54:47;8.03;;;5.30;;
8887;SDS011;4480;52.370;9.748;2023-06-01T08:57:15;9.80;;;6.10;;
8887;SDS011;4480;52.370;9.748;2023-06-01T08:59:43;7.43;;;5.53;;
8887;SDS011;4480;52.370;9.748;2023-06-01T09:02:12;6.90;;;4.70;;
8887;SDS011;4480;52.370;9.748;2023-06-01T09:04:40;6.80;;;4.27;;
8887;SDS011;4480;52.370;9.748;2023-06-01T09:07:10;6.57;;;4.00;;
8887;SDS011;4480;52.370;9.748;2023-06-01T09:09:36;6.50;;;4.30;;
8887;SDS011;4480;52.370;9.748;2023-06-01T09:12:16;8.43;;;4.30;;
8887;SDS011;4480;52.370;9.748;2023-06-01T09:14:44;7.43;;;3.90;;
8887;SDS011;4480;52.370;9.748;2023-06-01T09:17:12;5.17;;;3.50;;
8887;SDS011;4480;52.370;9.748;2023-06-01T09:19:42;4.60;;;3.30;;
8887;SDS011;4480;52.370;9.748;2023-06-01T09:22:10;4.97;;;3.40;;
8887;SDS011;4480;52.370;9.748;2023-06-01T09:24:37;5.63;;;3.37;;
8887;SDS011;4480;52.370;9.748;2023-06-01T09:27:06;3.30;;;2.70;;
8887;SDS011;4480;52.370;9.748;2023-06-01T09:29:33;4.33;;;3.30;;
8887;SDS011;4480;52.370;9.748;2023-06-01T09:32:00;5.20;;;2.80;;
8887;SDS011;4480;52.370;9.748;2023-06-01T09:34:27;3.80;;;2.87;;
8887;SDS011;4480;52.370;9.748;2023-06-01T09:36:56;3.80;;;2.70;;
8887;SDS011;4480;52.370;9.748;2023-06-01T09:39:32;4.30;;;2.87;;
8887;SDS011;4480;52.370;9.748;2023-06-01T09:42:00;4.60;;;2.50;;
8887;SDS011;4480;52.370;9.748;2023-06-01T09:44:28;4.53;;;3.27;;
8887;SDS011;4480;52.370;9.748;2023-06-01T09:46:55;3.80;;;2.90;;
8887;SDS011;4480;52.370;9.748;2023-06-01T09:49:23;4.93;;;2.93;;
8887;SDS011;4480;52.370;9.748;2023-06-01T09:51:52;4.20;;;2.77;;
8887;SDS011;4480;52.370;9.748;2023-06-01T09:54:25;6.70;;;3.13;;
8887;SDS011;4480;52.370;9.748;2023-06-01T09:56:54;4.60;;;2.67;;
8887;SDS011;4480;52.370;9.748;2023-06-01T09:59:21;3.57;;;2.43;;
8887;SDS011;4480;52.370;9.748;2023-06-01T10:01:50;3.13;;;2.73;;
8887;SDS011;4480;52.370;9.748;2023-06-01T10:04:19;3.63;;;2.33;;
8887;SDS011;4480;52.370;9.748;2023-06-01T10:06:49;4.20;;;2.47;;
8887;SDS011;4480;52.370;9.748;2023-06-01T10:09:18;3.17;;;2.30;;
8887;SDS011;4480;52.370;9.748;2023-06-01T10:11:47;3.80;;;2.70;;
8887;SDS011;4480;52.370;9.748;2023-06-01T10:14:15;3.20;;;2.90;;
8887;SDS011;4480;52.370;9.748;2023-06-01T10:16:42;3.17;;;2.67;;
8887;SDS011;4480;52.370;9.748;2023-06-01T10:19:10;4.03;;;2.87;;
8887;SDS011;4480;52.370;9.748;2023-06-01T10:21:38;3.53;;;2.77;;
8887;SDS011;4480;52.370;9.748;2023-06-01T10:24:07;4.07;;;2.93;;
8887;SDS011;4480;52.370;9.748;2023-06-01T10:26:45;3.13;;;2.73;;
8887;SDS011;4480;52.370;9.748;2023-06-01T10:29:21;3.13;;;2.93;;
8887;SDS011;4480;52.370;9.748;2023-06-01T10:31:49;5.67;;;2.93;;
8887;SDS011;4480;52.370;9.748;2023-06-01T10:34:17;6.80;;;3.20;;
8887;SDS011;4480;52.370;9.748;2023-06-01T10:37:13;3.67;;;2.47;;
8887;SDS011;4480;52.370;9.748;2023-06-01T10:39:40;3.03;;;2.63;;
8887;SDS011;4480;52.370;9.748;2023-06-01T10:48:05;4.23;;;3.60;;
8887;SDS011;4480;52.370;9.748;2023-06-01T10:50:35;3.90;;;3.37;;
8887;SDS011;4480;52.370;9.748;2023-06-01T11:01:38;2.33;;;2.13;;
8887;SDS011;4480;52.370;9.748;2023-06-01T11:04:06;2.50;;;2.10;;
8887;SDS011;4480;52.370;9.748;2023-06-01T11:06:33;2.70;;;2.50;;
8887;SDS011;4480;52.370;9.748;2023-06-01T11:09:03;3.80;;;3.40;;
8887;SDS011;4480;52.370;9.748;2023-06-01T11:14:25;3.20;;;2.40;;
8887;SDS011;4480;52.370;9.748;2023-06-01T11:16:57;4.00;;;3.00;;
8887;SDS011;4480;52.370;9.748;2023-06-01T11:19:57;3.33;;;3.03;;
8887;SDS011;4480;52.370;9.748;2023-06-01T11:22:26;4.37;;;3.97;;
8887;SDS011;4480;52.370;9.748;2023-06-01T11:25:01;4.53;;;3.47;;
8887;SDS011;4480;52.370;9.748;2023-06-01T11:27:33;4.90;;;3.30;;
8887;SDS011;4480;52.370;9.748;2023-06-01T11:30:01;4.47;;;3.20;;
8887;SDS011;4480;52.370;9.748;2023-06-01T11:32:30;3.30;;;3.00;;
8887;SDS011;4480;52.370;9.748;2023-06-01T11:35:14;4.23;;;3.23;;
8887;SDS011;4480;52.370;9.748;2023-06-01T11:37:42;3.63;;;3.10;;
8887;SDS011;4480;52.370;9.748;2023-06-01T11:40:12;3.83;;;2.93;;
8887;SDS011;4480;52.370;9.748;2023-06-01T11:42:40;3.13;;;2.57;;
8887;SDS011;4480;52.370;9.748;2023-06-01T11:45:07;3.27;;;2.97;;
8887;SDS011;4480;52.370;9.748;2023-06-01T11:47:43;4.07;;;3.20;;
8887;SDS011;4480;52.370;9.748;2023-06-01T11:50:19;3.57;;;3.27;;
8887;SDS011;4480;52.370;9.748;2023-06-01T11:52:47;4.20;;;3.20;;
8887;SDS011;4480;52.370;9.748;2023-06-01T11:55:13;5.80;;;2.77;;
8887;SDS011;4480;52.370;9.748;2023-06-01T11:57:40;6.20;;;3.63;;
8887;SDS011;4480;52.370;9.748;2023-06-01T12:00:10;4.50;;;4.10;;
8887;SDS011;4480;52.370;9.748;2023-06-01T12:02:39;5.13;;;4.03;;
8887;SDS011;4480;52.370;9.748;2023-06-01T12:05:08;4.20;;;3.80;;
8887;SDS011;4480;52.370;9.748;2023-06-01T12:07:42;4.43;;;3.80;;
8887;SDS011;4480;52.370;9.748;2023-06-01T12:10:10;4.60;;;4.20;;
8887;SDS011;4480;52.370;9.748;2023-06-01T12:12:38;4.30;;;3.90;;
8887;SDS011;4480;52.370;9.748;2023-06-01T12:15:06;6.43;;;4.23;;
8887;SDS011;4480;52.370;9.748;2023-06-01T12:17:46;6.30;;;4.17;;
8887;SDS011;4480;52.370;9.748;2023-06-01T12:20:26;6.13;;;4.17;;
8887;SDS011;4480;52.370;9.748;2023-06-01T12:22:54;4.10;;;3.70;;
8887;SDS011;4480;52.370;9.748;2023-06-01T12:25:21;4.50;;;3.70;;
8887;SDS011;4480;52.370;9.748;2023-06-01T12:28:01;4.27;;;3.33;;
8887;SDS011;4480;52.370;9.748;2023-06-01T12:30:28;4.93;;;4.10;;
8887;SDS011;4480;52.370;9.748;2023-06-01T12:32:55;6.40;;;4.40;;
8887;SDS011;4480;52.370;9.748;2023-06-01T12:35:22;5.07;;;4.10;;
8887;SDS011;4480;52.370;9.748;2023-06-01T12:38:03;4.37;;;3.97;;
8887;SDS011;4480;52.370;9.748;2023-06-01T12:40:31;6.07;;;4.80;;
8887;SDS011;4480;52.370;9.748;2023-06-01T12:42:58;5.00;;;4.30;;
8887;SDS011;4480;52.370;9.748;2023-06-01T12:45:25;5.63;;;4.30;;
8887;SDS011;4480;52.370;9.748;2023-06-01T12:48:01;7.93;;;4.40;;
8887;SDS011;4480;52.370;9.748;2023-06-01T12:50:28;7.67;;;3.80;;
8887;SDS011;4480;52.370;9.748;2023-06-01T12:52:58;5.40;;;3.77;;
8887;SDS011;4480;52.370;9.748;2023-06-01T12:55:28;5.07;;;3.50;;
8887;SDS011;4480;52.370;9.748;2023-06-01T12:57:55;4.87;;;3.63;;
8887;SDS011;4480;52.370;9.748;2023-06-01T13:00:22;4.00;;;3.50;;
8887;SDS011;4480;52.370;9.748;2023-06-01T13:02:49;4.83;;;3.50;;
8887;SDS011;4480;52.370;9.748;2023-06-01T13:05:17;4.37;;;3.43;;
8887;SDS011;4480;52.370;9.748;2023-06-01T13:07:44;5.63;;;3.43;;
8887;SDS011;4480;52.370;9.748;2023-06-01T13:10:11;5.30;;;3.07;;
8887;SDS011;4480;52.370;9.748;2023-06-01T13:12:40;3.70;;;3.10;;
8887;SDS011;4480;52.370;9.748;2023-06-01T13:15:07;3.60;;;3.20;;
8887;SDS011;4480;52.370;9.748;2023-06-01T13:17:34;3.77;;;3.40;;
8887;SDS011;4480;52.370;9.748;2023-06-01T13:20:01;4.07;;;3.30;;
8887;SDS011;4480;52.370;9.748;2023-06-01T13:22:31;3.33;;;3.03;;
8887;SDS011;4480;52.370;9.748;2023-06-01T13:24:58;5.20;;;3.03;;
8887;SDS011;4480;52.370;9.748;2023-06-01T13:27:25;3.87;;;3.50;;
8887;SDS011;4480;52.370;9.748;2023-06-01T13:29:54;3.40;;;2.83;;
8887;SDS011;4480;52.370;9.748;2023-06-01T13:32:20;2.90;;;2.57;;
8887;SDS011;4480;52.370;9.748;2023-06-01T13:34:47;4.40;;;3.07;;
8887;SDS011;4480;52.370;9.748;2023-06-01T13:37:14;3.00;;;2.80;;
8887;SDS011;4480;52.370;9.748;2023-06-01T13:39:43;4.60;;;3.77;;
8887;SDS011;4480;52.370;9.748;2023-06-01T13:42:09;3.30;;;2.97;;
8887;SDS011;4480;52.370;9.748;2023-06-01T13:44:36;3.50;;;2.87;;
8887;SDS011;4480;52.370;9.748;2023-06-01T13:47:05;3.17;;;2.87;;
8887;SDS011;4480;52.370;9.748;2023-06-01T13:49:32;6.00;;;4.00;;
8887;SDS011;4480;52.370;9.748;2023-06-01T13:52:00;2.57;;;2.37;;
8887;SDS011;4480;52.370;9.748;2023-06-01T13:54:26;3.23;;;2.83;;
8887;SDS011;4480;52.370;9.748;2023-06-01T13:56:53;4.87;;;3.13;;
8887;SDS011;4480;52.370;9.748;2023-06-01T13:59:20;3.63;;;3.00;;
8887;SDS011;4480;52.370;9.748;2023-06-01T14:01:47;5.00;;;3.30;;
8887;SDS011;4480;52.370;9.748;2023-06-01T14:04:16;3.77;;;2.80;;
8887;SDS011;4480;52.370;9.748;2023-06-01T14:06:43;3.83;;;3.43;;
8887;SDS011;4480;52.370;9.748;2023-06-01T14:09:11;3.50;;;2.53;;
8887;SDS011;4480;52.370;9.748;2023-06-01T14:11:37;6.80;;;4.67;;
8887;SDS011;4480;52.370;9.748;2023-06-01T14:14:04;6.43;;;3.63;;
8887;SDS011;4480;52.370;9.748;2023-06-01T14:16:31;4.00;;;3.10;;
8887;SDS011;4480;52.370;9.748;2023-06-01T14:18:57;4.63;;;4.20;;
8887;SDS011;4480;52.370;9.748;2023-06-01T14:21:26;4.30;;;3.30;;
8887;SDS011;4480;52.370;9.748;2023-06-01T14:23:54;5.80;;;3.40;;
8887;SDS011;4480;52.370;9.748;2023-06-01T14:26:20;4.10;;;3.23;;
8887;SDS011;4480;52.370;9.748;2023-06-01T14:28:47;5.33;;;3.27;;
8887;SDS011;4480;52.370;9.748;2023-06-01T14:31:14;3.93;;;3.50;;
8887;SDS011;4480;52.370;9.748;2023-06-01T14:33:41;4.90;;;3.40;;
8887;SDS011;4480;52.370;9.748;2023-06-01T14:36:08;5.47;;;3.60;;
8887;SDS011;4480;52.370;9.748;2023-06-01T14:38:36;4.13;;;3.53;;
8887;SDS011;4480;52.370;9.748;2023-06-01T14:41:03;5.43;;;3.80;;
8887;SDS011;4480;52.370;9.748;2023-06-01T14:43:30;8.53;;;4.37;;
8887;SDS011;4480;52.370;9.748;2023-06-01T14:45:57;6.87;;;3.60;;
8887;SDS011;4480;52.370;9.748;2023-06-01T14:48:24;5.30;;;3.93;;
8887;SDS011;4480;52.370;9.748;2023-06-01T14:50:51;4.37;;;3.30;;
8887;SDS011;4480;52.370;9.748;2023-06-01T14:53:18;4.00;;;3.23;;
8887;SDS011;4480;52.370;9.748;2023-06-01T14:55:46;6.80;;;3.80;;
8887;SDS011;4480;52.370;9.748;2023-06-01T14:58:13;3.63;;;3.23;;
8887;SDS011;4480;52.370;9.748;2023-06-01T15:00:40;4.73;;;4.10;;
8887;SDS011;4480;52.370;9.748;2023-06-01T15:03:07;8.30;;;3.80;;
8887;SDS011;4480;52.370;9.748;2023-06-01T15:05:33;4.93;;;3.57;;
8887;SDS011;4480;52.370;9.748;2023-06-01T15:08:01;5.03;;;3.40;;
8887;SDS011;4480;52.370;9.748;2023-06-01T15:10:27;7.67;;;4.43;;
8887;SDS011;4480;52.370;9.748;2023-06-01T15:12:56;6.50;;;3.53;;
8887;SDS011;4480;52.370;9.748;2023-06-01T15:15:22;6.30;;;3.87;;
8887;SDS011;4480;52.370;9.748;2023-06-01T15:17:49;4.77;;;3.63;;
8887;SDS011;4480;52.370;9.748;2023-06-01T15:20:16;6.90;;;4.37;;
8887;SDS011;4480;52.370;9.748;2023-06-01T15:22:43;6.60;;;3.67;;
8887;SDS011;4480;52.370;9.748;2023-06-01T15:25:09;6.50;;;4.10;;
8887;SDS011;4480;52.370;9.748;2023-06-01T15:27:36;6.53;;;3.87;;
8887;SDS011;4480;52.370;9.748;2023-06-01T15:30:06;7.28;;;3.30;;
8887;SDS011;4480;52.370;9.748;2023-06-01T15:32:35;6.77;;;3.63;;
8887;SDS011;4480;52.370;9.748;2023-06-01T15:35:01;5.23;;;3.57;;
8887;SDS011;4480;52.370;9.748;2023-06-01T15:37:30;7.00;;;3.50;;